createdAt,value
2022-09-11T00:00:03.629Z,40.65
2022-09-11T00:00:47.078Z,45.45
2022-09-11T00:01:20.771Z,48.53
2022-09-11T00:01:56.293Z,37.50
2022-09-11T00:02:30.512Z,46.28
2022-09-11T00:03:04.634Z,41.47
2022-09-11T00:03:40.578Z,40.28
2022-09-11T00:04:14.732Z,44.95
2022-09-11T00:04:50.720Z,46.13
2022-09-11T00:05:24.046Z,46.80
2022-09-11T00:05:58.025Z,37.35
2022-09-11T00:06:33.302Z,48.88
2022-09-11T00:07:08.243Z,47.45
2022-09-11T00:07:41.893Z,43.70
2022-09-11T00:08:19.052Z,49.30
2022-09-11T00:08:54.161Z,36.03
2022-09-11T00:09:27.545Z,46.13
2022-09-11T00:10:03.131Z,46.13
2022-09-11T00:10:38.156Z,44.95
2022-09-11T00:11:13.516Z,39.72
2022-09-11T00:11:48.780Z,40.83
2022-09-11T00:12:22.861Z,44.53
2022-09-11T00:12:57.076Z,40.30
2022-09-11T00:13:32.231Z,47.08
2022-09-11T00:14:07.031Z,38.55
2022-09-11T00:14:42.870Z,40.28
2022-09-11T00:15:18.366Z,45.15
2022-09-11T00:15:53.180Z,40.08
2022-09-11T00:16:31.221Z,40.20
2022-09-11T00:17:05.927Z,40.65
2022-09-11T00:17:40.108Z,42.47
2022-09-11T00:18:15.312Z,48.05
2022-09-11T00:18:50.275Z,39.53
2022-09-11T00:19:25.191Z,40.85
2022-09-11T00:20:00.808Z,43.28
2022-09-11T00:20:36.485Z,39.95
2022-09-11T00:21:10.716Z,46.42
2022-09-11T00:21:47.346Z,38.88
2022-09-11T00:22:22.702Z,42.85
2022-09-11T00:22:57.779Z,41.70
2022-09-11T00:23:32.031Z,41.60
2022-09-11T00:24:09.538Z,39.55
2022-09-11T00:24:43.182Z,48.90
2022-09-11T00:25:18.935Z,51.95
2022-09-11T00:25:52.091Z,41.92
2022-09-11T00:26:26.527Z,45.90
2022-09-11T00:27:01.912Z,50.80
2022-09-11T00:27:36.150Z,42.65
2022-09-11T00:28:12.830Z,52.00
2022-09-11T00:28:49.597Z,47.83
2022-09-11T00:29:24.099Z,41.67
2022-09-11T00:29:59.450Z,47.33
2022-09-11T00:30:34.558Z,44.65
2022-09-11T00:31:09.694Z,45.05
2022-09-11T00:31:45.075Z,41.88
2022-09-11T00:32:20.803Z,44.72
2022-09-11T00:32:54.554Z,46.03
2022-09-11T00:33:30.307Z,42.90
2022-09-11T00:34:04.335Z,45.20
2022-09-11T00:34:39.881Z,45.42
2022-09-11T00:35:13.771Z,45.30
2022-09-11T00:35:57.595Z,44.85
2022-09-11T00:36:33.207Z,42.55
2022-09-11T00:37:07.250Z,44.75
2022-09-11T00:37:41.255Z,44.50
2022-09-11T00:38:17.367Z,42.22
2022-09-11T00:38:52.044Z,37.08
2022-09-11T00:39:27.081Z,46.53
2022-09-11T00:40:01.362Z,38.65
2022-09-11T00:40:36.084Z,39.88
2022-09-11T00:41:13.959Z,40.97
2022-09-11T00:41:48.171Z,48.05
2022-09-11T00:42:22.611Z,41.08
2022-09-11T00:42:58.939Z,41.75
2022-09-11T00:43:52.618Z,41.50
2022-09-11T00:44:46.685Z,46.15
2022-09-11T00:45:22.596Z,44.17
2022-09-11T00:45:59.440Z,54.45
2022-09-11T00:46:38.386Z,51.78
2022-09-11T00:47:15.952Z,44.40
2022-09-11T00:47:53.527Z,42.33
2022-09-11T00:48:30.513Z,47.28
2022-09-11T00:49:06.558Z,43.70
2022-09-11T00:49:44.569Z,40.45
2022-09-11T00:50:20.081Z,46.10
2022-09-11T00:50:55.089Z,40.47
2022-09-11T00:51:35.782Z,39.97
2022-09-11T00:52:11.338Z,45.72
2022-09-11T00:52:53.243Z,43.75
2022-09-11T00:53:32.246Z,40.83
2022-09-11T00:54:06.841Z,51.53
2022-09-11T00:54:44.025Z,45.40
2022-09-11T00:55:21.063Z,46.00
2022-09-11T00:55:59.239Z,43.55
2022-09-11T00:56:38.749Z,46.50
2022-09-11T00:57:12.491Z,44.20
2022-09-11T00:57:49.193Z,47.42
2022-09-11T00:58:25.667Z,49.33
2022-09-11T00:59:01.763Z,41.83
2022-09-11T00:59:36.135Z,38.88
2022-09-11T01:00:13.546Z,39.38
2022-09-11T01:00:47.687Z,40.03
2022-09-11T01:01:23.207Z,34.45
2022-09-11T01:01:58.334Z,38.80
2022-09-11T01:02:33.143Z,44.25
2022-09-11T01:03:07.178Z,43.58
2022-09-11T01:03:42.913Z,42.70
2022-09-11T01:04:17.300Z,39.78
2022-09-11T01:04:51.635Z,47.47
2022-09-11T01:05:27.563Z,45.83
2022-09-11T01:06:01.271Z,38.17
2022-09-11T01:06:36.055Z,39.22
2022-09-11T01:07:13.485Z,38.58
2022-09-11T01:07:48.657Z,43.47
2022-09-11T01:08:22.824Z,39.20
2022-09-11T01:08:57.588Z,46.13
2022-09-11T01:09:32.596Z,43.17
2022-09-11T01:10:09.307Z,42.15
2022-09-11T01:10:50.962Z,42.08
2022-09-11T01:11:35.163Z,39.47
2022-09-11T01:12:11.950Z,45.03
2022-09-11T01:12:51.514Z,41.40
2022-09-11T01:13:29.928Z,37.47
2022-09-11T01:14:09.198Z,42.30
2022-09-11T01:14:47.802Z,43.33
2022-09-11T01:15:23.225Z,41.85
2022-09-11T01:16:04.870Z,41.05
2022-09-11T01:16:44.227Z,38.10
2022-09-11T01:17:23.860Z,38.10
2022-09-11T01:18:03.136Z,44.47
2022-09-11T01:18:41.934Z,35.42
2022-09-11T01:19:26.627Z,42.17
2022-09-11T01:20:16.639Z,46.50
2022-09-11T01:21:00.478Z,39.22
2022-09-11T01:21:52.985Z,42.15
2022-09-11T01:22:52.384Z,39.42
2022-09-11T01:23:35.637Z,40.10
2022-09-11T01:24:18.266Z,45.45
2022-09-11T01:25:02.250Z,42.38
2022-09-11T01:25:44.953Z,45.20
2022-09-11T01:26:32.677Z,41.90
2022-09-11T01:27:29.043Z,46.53
2022-09-11T01:28:06.971Z,44.42
2022-09-11T01:28:47.373Z,42.30
2022-09-11T01:29:24.659Z,44.10
2022-09-11T01:30:03.035Z,48.55
2022-09-11T01:30:41.118Z,43.42
2022-09-11T01:31:18.664Z,45.85
2022-09-11T01:31:56.346Z,41.38
2022-09-11T01:32:35.192Z,40.22
2022-09-11T01:33:17.344Z,46.30
2022-09-11T01:33:55.038Z,40.08
2022-09-11T01:34:33.128Z,42.53
2022-09-11T01:35:13.479Z,46.10
2022-09-11T01:35:55.063Z,45.47
2022-09-11T01:36:31.780Z,49.38
2022-09-11T01:37:07.712Z,52.72
2022-09-11T01:37:43.578Z,47.65
2022-09-11T01:38:19.021Z,45.90
2022-09-11T01:38:55.502Z,44.17
2022-09-11T01:39:32.217Z,42.00
2022-09-11T01:40:11.405Z,41.10
2022-09-11T01:40:49.941Z,43.78
2022-09-11T01:41:28.482Z,39.42
2022-09-11T01:42:07.853Z,42.25
2022-09-11T01:42:44.980Z,42.65
2022-09-11T01:43:22.866Z,41.17
2022-09-11T01:44:00.186Z,46.05
2022-09-11T01:44:37.545Z,45.17
2022-09-11T01:45:17.880Z,43.83
2022-09-11T01:45:55.397Z,47.33
2022-09-11T01:46:30.399Z,45.70
2022-09-11T01:47:05.710Z,40.45
2022-09-11T01:47:39.769Z,41.03
2022-09-11T01:48:15.174Z,39.80
2022-09-11T01:48:50.823Z,38.97
2022-09-11T01:49:29.558Z,45.42
2022-09-11T01:50:05.453Z,42.38
2022-09-11T01:50:41.423Z,42.08
2022-09-11T01:51:18.227Z,38.92
2022-09-11T01:51:55.750Z,44.13
2022-09-11T01:52:32.189Z,40.90
2022-09-11T01:53:10.468Z,40.90
2022-09-11T01:53:50.151Z,39.97
2022-09-11T01:55:01.968Z,39.72
2022-09-11T01:55:39.481Z,44.00
2022-09-11T01:56:20.202Z,45.10
2022-09-11T01:56:56.587Z,45.25
2022-09-11T01:57:32.902Z,44.90
2022-09-11T01:58:11.538Z,43.45
2022-09-11T01:58:49.501Z,46.83
2022-09-11T01:59:28.655Z,44.85
2022-09-11T02:00:05.274Z,37.38
2022-09-11T02:00:50.851Z,38.67
2022-09-11T02:01:26.473Z,44.20
2022-09-11T02:02:03.020Z,41.90
2022-09-11T02:02:39.501Z,37.40
2022-09-11T02:03:16.967Z,48.40
2022-09-11T02:03:54.341Z,44.90
2022-09-11T02:04:31.269Z,44.38
2022-09-11T02:05:10.895Z,46.13
2022-09-11T02:05:50.622Z,42.45
2022-09-11T02:06:32.805Z,45.40
2022-09-11T02:07:10.248Z,44.67
2022-09-11T02:07:47.866Z,43.50
2022-09-11T02:08:23.520Z,39.58
2022-09-11T02:09:01.340Z,40.03
2022-09-11T02:09:39.933Z,40.20
2022-09-11T02:10:15.166Z,42.35
2022-09-11T02:10:52.572Z,40.13
2022-09-11T02:11:30.101Z,42.60
2022-09-11T02:12:05.395Z,42.53
2022-09-11T02:12:43.596Z,39.10
2022-09-11T02:13:25.004Z,39.33
2022-09-11T02:14:06.404Z,42.92
2022-09-11T02:14:44.062Z,43.22
2022-09-11T02:15:17.813Z,39.60
2022-09-11T02:15:54.882Z,39.00
2022-09-11T02:16:38.654Z,37.15
2022-09-11T02:17:18.088Z,42.53
2022-09-11T02:17:55.914Z,41.90
2022-09-11T02:18:39.238Z,38.10
2022-09-11T02:19:14.332Z,37.83
2022-09-11T02:19:49.866Z,42.15
2022-09-11T02:20:25.817Z,40.20
2022-09-11T02:20:59.520Z,37.90
2022-09-11T02:21:34.172Z,37.00
2022-09-11T02:22:09.535Z,36.63
2022-09-11T02:22:44.500Z,35.83
2022-09-11T02:23:18.539Z,45.65
2022-09-11T02:23:56.070Z,39.83
2022-09-11T02:24:29.978Z,39.42
2022-09-11T02:25:04.585Z,40.40
2022-09-11T02:25:40.432Z,38.65
2022-09-11T02:26:15.889Z,45.35
2022-09-11T02:26:52.917Z,42.13
2022-09-11T02:27:31.874Z,40.05
2022-09-11T02:28:44.587Z,41.83
2022-09-11T02:29:19.353Z,41.88
2022-09-11T02:29:54.578Z,44.00
2022-09-11T02:30:29.363Z,38.78
2022-09-11T02:31:04.149Z,33.92
2022-09-11T02:31:37.388Z,42.50
2022-09-11T02:32:12.686Z,40.80
2022-09-11T02:32:49.381Z,37.80
2022-09-11T02:33:29.159Z,40.85
2022-09-11T02:34:04.625Z,37.80
2022-09-11T02:34:39.636Z,37.65
2022-09-11T02:35:16.983Z,39.85
2022-09-11T02:35:55.380Z,36.58
2022-09-11T02:36:41.390Z,42.78
2022-09-11T02:37:23.741Z,38.83
2022-09-11T02:38:00.194Z,38.30
2022-09-11T02:38:38.313Z,38.42
2022-09-11T02:39:17.922Z,38.42
2022-09-11T02:40:04.145Z,39.70
2022-09-11T02:40:46.324Z,40.03
2022-09-11T02:41:24.919Z,36.25
2022-09-11T02:42:08.317Z,58.83
2022-09-11T02:42:48.541Z,42.53
2022-09-11T02:43:34.564Z,38.78
2022-09-11T02:44:13.227Z,39.05
2022-09-11T02:44:50.386Z,35.95
2022-09-11T02:45:36.403Z,36.63
2022-09-11T02:46:19.223Z,34.45
2022-09-11T02:47:06.857Z,34.35
2022-09-11T02:47:45.157Z,37.28
2022-09-11T02:48:26.875Z,40.80
2022-09-11T02:49:07.561Z,41.83
2022-09-11T02:49:48.226Z,40.00
2022-09-11T02:50:26.542Z,32.03
2022-09-11T02:51:03.465Z,41.97
2022-09-11T02:51:40.895Z,35.78
2022-09-11T02:52:21.914Z,36.45
2022-09-11T02:53:00.254Z,35.10
2022-09-11T02:53:38.934Z,36.70
2022-09-11T02:54:18.989Z,40.53
2022-09-11T02:54:57.510Z,34.47
2022-09-11T02:55:36.165Z,39.38
2022-09-11T02:56:13.915Z,37.00
2022-09-11T02:56:50.373Z,37.72
2022-09-11T02:57:27.876Z,35.00
2022-09-11T02:58:04.113Z,34.50
2022-09-11T02:58:40.672Z,32.80
2022-09-11T02:59:20.518Z,42.35
2022-09-11T02:59:56.382Z,45.63
2022-09-11T03:00:30.295Z,33.88
2022-09-11T03:01:06.845Z,39.33
2022-09-11T03:01:48.781Z,39.75
2022-09-11T03:02:24.894Z,36.30
2022-09-11T03:03:01.592Z,35.65
2022-09-11T03:03:39.378Z,36.88
2022-09-11T03:04:16.171Z,35.83
2022-09-11T03:04:51.437Z,36.50
2022-09-11T03:05:25.623Z,43.53
2022-09-11T03:06:00.226Z,38.60
2022-09-11T03:06:36.223Z,31.42
2022-09-11T03:07:09.881Z,33.88
2022-09-11T03:07:45.150Z,33.58
2022-09-11T03:08:21.073Z,31.50
2022-09-11T03:08:56.330Z,34.13
2022-09-11T03:09:30.583Z,44.05
2022-09-11T03:10:12.865Z,35.22
2022-09-11T03:10:47.486Z,37.00
2022-09-11T03:11:21.740Z,35.58
2022-09-11T03:11:56.663Z,37.72
2022-09-11T03:12:32.609Z,33.40
2022-09-11T03:13:06.443Z,35.08
2022-09-11T03:13:40.989Z,33.65
2022-09-11T03:14:18.141Z,34.83
2022-09-11T03:14:52.541Z,31.73
2022-09-11T03:15:28.615Z,34.13
2022-09-11T03:16:02.955Z,32.33
2022-09-11T03:16:37.691Z,33.00
2022-09-11T03:17:13.800Z,32.95
2022-09-11T03:17:47.931Z,32.45
2022-09-11T03:18:24.146Z,35.58
2022-09-11T03:18:58.982Z,35.40
2022-09-11T03:19:32.042Z,41.35
2022-09-11T03:20:05.676Z,32.38
2022-09-11T03:20:41.200Z,32.67
2022-09-11T03:21:17.599Z,29.73
2022-09-11T03:21:52.247Z,34.72
2022-09-11T03:22:30.021Z,36.72
2022-09-11T03:23:11.375Z,32.15
2022-09-11T03:23:44.911Z,34.53
2022-09-11T03:24:19.382Z,39.20
2022-09-11T03:24:53.119Z,32.28
2022-09-11T03:25:28.900Z,33.63
2022-09-11T03:26:06.328Z,33.67
2022-09-11T03:26:41.804Z,30.05
2022-09-11T03:27:17.523Z,30.70
2022-09-11T03:27:52.465Z,33.50
2022-09-11T03:28:26.514Z,30.23
2022-09-11T03:29:05.097Z,33.47
2022-09-11T03:29:42.332Z,32.42
2022-09-11T03:30:17.207Z,31.95
2022-09-11T03:30:56.449Z,30.63
2022-09-11T03:31:36.214Z,34.55
2022-09-11T03:32:13.477Z,31.02
2022-09-11T03:32:47.595Z,36.45
2022-09-11T03:33:23.091Z,32.22
2022-09-11T03:33:57.222Z,29.20
2022-09-11T03:34:32.399Z,34.60
2022-09-11T03:35:08.704Z,31.10
2022-09-11T03:35:45.336Z,34.95
2022-09-11T03:36:21.439Z,41.60
2022-09-11T03:36:54.491Z,32.78
2022-09-11T03:37:28.273Z,32.83
2022-09-11T03:38:05.815Z,31.13
2022-09-11T03:38:40.926Z,34.97
2022-09-11T03:39:14.993Z,31.92
2022-09-11T03:39:50.167Z,29.92
2022-09-11T03:40:23.967Z,30.35
2022-09-11T03:40:59.070Z,33.28
2022-09-11T03:41:34.295Z,37.60
2022-09-11T03:42:08.992Z,35.00
2022-09-11T03:42:43.697Z,32.20
2022-09-11T03:43:18.063Z,35.67
2022-09-11T03:43:52.659Z,32.63
2022-09-11T03:44:26.164Z,34.60
2022-09-11T03:45:02.314Z,31.40
2022-09-11T03:45:37.038Z,32.80
2022-09-11T03:46:11.663Z,25.88
2022-09-11T03:46:47.944Z,32.72
2022-09-11T03:47:22.911Z,28.25
2022-09-11T03:47:57.630Z,34.70
2022-09-11T03:48:32.451Z,31.25
2022-09-11T03:49:06.432Z,34.15
2022-09-11T03:49:40.014Z,35.70
2022-09-11T03:50:14.995Z,30.55
2022-09-11T03:50:49.149Z,31.95
2022-09-11T03:51:22.172Z,33.35
2022-09-11T03:51:57.427Z,30.77
2022-09-11T03:52:32.117Z,33.67
2022-09-11T03:53:06.160Z,32.22
2022-09-11T03:53:41.173Z,32.88
2022-09-11T03:54:16.803Z,31.20
2022-09-11T03:54:53.674Z,30.38
2022-09-11T03:55:27.983Z,32.85
2022-09-11T03:56:01.783Z,34.10
2022-09-11T03:56:39.613Z,31.10
2022-09-11T03:57:14.315Z,33.00
2022-09-11T03:57:48.219Z,30.42
2022-09-11T03:58:22.973Z,30.73
2022-09-11T03:58:57.916Z,33.20
2022-09-11T03:59:32.558Z,34.70
2022-09-11T04:00:11.199Z,35.45
2022-09-11T04:00:53.707Z,32.05
2022-09-11T04:01:27.993Z,32.50
2022-09-11T04:02:02.875Z,30.83
2022-09-11T04:02:37.319Z,32.10
2022-09-11T04:03:10.702Z,30.40
2022-09-11T04:03:50.251Z,27.45
2022-09-11T04:04:33.714Z,31.45
2022-09-11T04:05:09.143Z,33.80
2022-09-11T04:05:45.784Z,30.80
2022-09-11T04:06:20.620Z,38.45
2022-09-11T04:06:56.539Z,30.35
2022-09-11T04:07:32.213Z,32.00
2022-09-11T04:08:05.397Z,32.53
2022-09-11T04:08:41.882Z,34.45
2022-09-11T04:09:18.451Z,36.00
2022-09-11T04:09:55.695Z,29.98
2022-09-11T04:10:30.355Z,28.17
2022-09-11T04:11:05.820Z,30.10
2022-09-11T04:11:42.362Z,28.48
2022-09-11T04:12:27.471Z,26.15
2022-09-11T04:13:02.659Z,29.23
2022-09-11T04:13:37.507Z,26.30
2022-09-11T04:14:15.159Z,28.98
2022-09-11T04:14:51.020Z,27.85
2022-09-11T04:15:26.331Z,29.35
2022-09-11T04:16:01.473Z,29.83
2022-09-11T04:16:37.243Z,34.60
2022-09-11T04:17:12.169Z,23.60
2022-09-11T04:17:46.905Z,30.10
2022-09-11T04:18:21.876Z,27.27
2022-09-11T04:18:56.786Z,30.27
2022-09-11T04:19:31.584Z,31.48
2022-09-11T04:20:05.390Z,25.92
2022-09-11T04:20:41.632Z,32.95
2022-09-11T04:21:17.361Z,29.90
2022-09-11T04:21:57.260Z,33.60
2022-09-11T04:22:31.179Z,31.23
2022-09-11T04:23:05.895Z,27.85
2022-09-11T04:23:42.393Z,27.70
2022-09-11T04:24:17.402Z,28.95
2022-09-11T04:24:52.292Z,27.67
2022-09-11T04:25:27.403Z,36.33
2022-09-11T04:26:02.205Z,26.63
2022-09-11T04:26:36.467Z,25.73
2022-09-11T04:27:24.087Z,25.17
2022-09-11T04:27:58.157Z,30.00
2022-09-11T04:28:33.228Z,28.67
2022-09-11T04:29:07.825Z,28.65
2022-09-11T04:29:43.799Z,33.92
2022-09-11T04:30:17.902Z,31.25
2022-09-11T04:30:54.011Z,50.45
2022-09-11T04:31:28.994Z,29.15
2022-09-11T04:32:03.273Z,27.67
2022-09-11T04:32:40.950Z,28.30
2022-09-11T04:33:15.865Z,27.38
2022-09-11T04:33:53.026Z,28.08
2022-09-11T04:34:31.142Z,28.20
2022-09-11T04:35:05.230Z,28.08
2022-09-11T04:35:44.743Z,28.15
2022-09-11T04:36:21.983Z,28.05
2022-09-11T04:36:56.920Z,29.75
2022-09-11T04:37:31.020Z,30.05
2022-09-11T04:38:05.266Z,35.67
2022-09-11T04:38:42.578Z,27.65
2022-09-11T04:39:19.141Z,28.73
2022-09-11T04:39:56.277Z,28.00
2022-09-11T04:40:30.595Z,28.63
2022-09-11T04:41:04.476Z,31.55
2022-09-11T04:41:39.387Z,29.25
2022-09-11T04:42:14.066Z,27.67
2022-09-11T04:42:49.736Z,25.95
2022-09-11T04:43:25.489Z,26.10
2022-09-11T04:44:05.207Z,31.73
2022-09-11T04:44:47.065Z,29.23
2022-09-11T04:45:21.619Z,28.70
2022-09-11T04:46:03.215Z,28.58
2022-09-11T04:46:39.844Z,28.65
2022-09-11T04:47:14.759Z,29.70
2022-09-11T04:47:49.868Z,23.38
2022-09-11T04:48:24.574Z,25.90
2022-09-11T04:48:59.485Z,27.50
2022-09-11T04:49:33.774Z,24.05
2022-09-11T04:50:08.780Z,29.92
2022-09-11T04:50:44.998Z,30.92
2022-09-11T04:51:31.103Z,26.92
2022-09-11T04:52:07.360Z,26.55
2022-09-11T04:52:41.279Z,26.63
2022-09-11T04:53:18.021Z,24.42
2022-09-11T04:53:52.122Z,27.90
2022-09-11T04:54:26.683Z,29.88
2022-09-11T04:55:03.229Z,30.98
2022-09-11T04:55:38.750Z,26.98
2022-09-11T04:56:14.252Z,26.40
2022-09-11T04:56:55.471Z,30.47
2022-09-11T04:57:31.026Z,28.13
2022-09-11T04:58:04.717Z,27.80
2022-09-11T04:58:39.770Z,25.27
2022-09-11T04:59:16.126Z,25.60
2022-09-11T04:59:56.327Z,26.77
2022-09-11T05:00:30.430Z,28.58
2022-09-11T05:01:08.765Z,26.45
2022-09-11T05:01:47.108Z,32.80
2022-09-11T05:02:22.640Z,26.45
2022-09-11T05:02:59.834Z,25.70
2022-09-11T05:03:35.414Z,29.13
2022-09-11T05:04:09.328Z,27.85
2022-09-11T05:04:45.253Z,27.95
2022-09-11T05:05:19.884Z,29.95
2022-09-11T05:05:53.780Z,25.77
2022-09-11T05:06:29.029Z,28.88
2022-09-11T05:07:05.923Z,25.92
2022-09-11T05:07:39.471Z,26.95
2022-09-11T05:08:14.887Z,28.50
2022-09-11T05:08:49.099Z,25.08
2022-09-11T05:09:23.826Z,36.03
2022-09-11T05:09:59.136Z,27.77
2022-09-11T05:10:33.193Z,31.10
2022-09-11T05:11:09.181Z,26.08
2022-09-11T05:11:43.079Z,30.30
2022-09-11T05:12:17.808Z,30.83
2022-09-11T05:12:52.579Z,31.13
2022-09-11T05:13:27.245Z,24.83
2022-09-11T05:14:01.888Z,31.23
2022-09-11T05:14:39.730Z,30.95
2022-09-11T05:15:14.086Z,26.60
2022-09-11T05:15:50.740Z,27.88
2022-09-11T05:16:28.075Z,31.58
2022-09-11T05:17:02.281Z,35.42
2022-09-11T05:17:38.847Z,43.80
2022-09-11T05:18:16.698Z,67.30
2022-09-11T05:18:52.721Z,65.88
2022-09-11T05:19:30.522Z,38.72
2022-09-11T05:20:08.635Z,27.45
2022-09-11T05:20:45.485Z,29.33
2022-09-11T05:21:21.752Z,35.38
2022-09-11T05:21:56.422Z,57.05
2022-09-11T05:22:33.849Z,48.25
2022-09-11T05:23:09.058Z,44.90
2022-09-11T05:23:43.640Z,27.83
2022-09-11T05:24:19.229Z,37.58
2022-09-11T05:24:53.164Z,27.95
2022-09-11T05:25:28.381Z,31.23
2022-09-11T05:26:02.473Z,30.25
2022-09-11T05:26:39.412Z,29.50
2022-09-11T05:27:14.885Z,37.65
2022-09-11T05:27:49.914Z,28.17
2022-09-11T05:28:26.729Z,32.50
2022-09-11T05:29:01.487Z,27.35
2022-09-11T05:29:39.431Z,25.90
2022-09-11T05:30:19.253Z,26.10
2022-09-11T05:30:54.257Z,31.85
2022-09-11T05:31:32.767Z,28.70
2022-09-11T05:32:07.533Z,25.73
2022-09-11T05:32:41.130Z,24.58
2022-09-11T05:33:15.448Z,34.78
2022-09-11T05:33:48.815Z,53.38
2022-09-11T05:34:23.019Z,26.40
2022-09-11T05:35:00.274Z,32.60
2022-09-11T05:35:34.587Z,29.40
2022-09-11T05:36:09.515Z,30.38
2022-09-11T05:36:43.826Z,27.73
2022-09-11T05:37:18.519Z,36.35
2022-09-11T05:37:55.212Z,28.60
2022-09-11T05:38:30.218Z,27.63
2022-09-11T05:39:04.984Z,26.67
2022-09-11T05:39:41.556Z,25.05
2022-09-11T05:40:18.400Z,28.33
2022-09-11T05:40:53.759Z,32.85
2022-09-11T05:41:29.612Z,32.53
2022-09-11T05:42:22.767Z,27.00
2022-09-11T05:43:01.585Z,56.75
2022-09-11T05:43:36.673Z,31.30
2022-09-11T05:44:11.912Z,34.63
2022-09-11T05:44:47.851Z,30.48
2022-09-11T05:45:23.811Z,34.42
2022-09-11T05:45:59.984Z,29.95
2022-09-11T05:46:38.043Z,42.75
2022-09-11T05:47:13.068Z,30.67
2022-09-11T05:47:53.157Z,26.27
2022-09-11T05:48:29.837Z,26.20
2022-09-11T05:49:05.192Z,28.67
2022-09-11T05:49:39.736Z,39.13
2022-09-11T05:50:15.464Z,31.20
2022-09-11T05:50:53.320Z,27.42
2022-09-11T05:51:29.813Z,27.45
2022-09-11T05:52:06.005Z,23.70
2022-09-11T05:52:41.536Z,26.92
2022-09-11T05:53:18.109Z,27.98
2022-09-11T05:53:54.248Z,25.33
2022-09-11T05:54:29.858Z,25.90
2022-09-11T05:55:05.429Z,26.52
2022-09-11T05:55:39.976Z,24.08
2022-09-11T05:56:16.200Z,31.00
2022-09-11T05:56:50.498Z,21.42
2022-09-11T05:57:31.095Z,27.27
2022-09-11T05:58:04.739Z,30.65
2022-09-11T05:58:38.752Z,35.60
2022-09-11T05:59:18.151Z,25.85
2022-09-11T05:59:55.485Z,27.33
2022-09-11T06:00:28.685Z,27.85
2022-09-11T06:01:07.868Z,25.50
2022-09-11T06:01:45.336Z,23.58
2022-09-11T06:02:27.979Z,28.90
2022-09-11T06:03:03.112Z,22.05
2022-09-11T06:03:37.292Z,27.52
2022-09-11T06:04:14.389Z,27.27
2022-09-11T06:04:52.168Z,26.77
2022-09-11T06:05:29.579Z,23.20
2022-09-11T06:06:07.805Z,29.45
2022-09-11T06:06:44.317Z,28.58
2022-09-11T06:07:18.552Z,35.97
2022-09-11T06:07:54.779Z,26.63
2022-09-11T06:08:29.721Z,21.27
2022-09-11T06:09:05.164Z,24.88
2022-09-11T06:09:39.094Z,29.95
2022-09-11T06:10:14.093Z,24.60
2022-09-11T06:10:50.923Z,25.67
2022-09-11T06:11:25.220Z,22.75
2022-09-11T06:11:59.620Z,23.55
2022-09-11T06:12:37.083Z,27.48
2022-09-11T06:13:12.643Z,24.13
2022-09-11T06:13:47.687Z,23.75
2022-09-11T06:14:22.759Z,26.10
2022-09-11T06:14:58.076Z,23.27
2022-09-11T06:15:46.158Z,21.10
2022-09-11T06:16:25.320Z,30.83
2022-09-11T06:17:07.105Z,18.38
2022-09-11T06:17:41.888Z,21.85
2022-09-11T06:18:16.858Z,17.42
2022-09-11T06:18:53.611Z,20.38
2022-09-11T06:19:30.022Z,22.83
2022-09-11T06:20:04.701Z,15.80
2022-09-11T06:20:38.298Z,17.98
2022-09-11T06:21:20.877Z,17.33
2022-09-11T06:22:01.252Z,17.70
2022-09-11T06:22:46.878Z,16.08
2022-09-11T06:23:21.870Z,23.42
2022-09-11T06:23:56.695Z,16.65
2022-09-11T06:24:31.949Z,18.25
2022-09-11T06:25:06.465Z,22.92
2022-09-11T06:25:40.964Z,20.10
2022-09-11T06:26:19.102Z,18.05
2022-09-11T06:26:54.364Z,19.50
2022-09-11T06:27:29.179Z,27.35
2022-09-11T06:28:03.954Z,16.60
2022-09-11T06:28:39.796Z,21.08
2022-09-11T06:29:15.694Z,18.05
2022-09-11T06:29:56.106Z,15.70
2022-09-11T06:30:30.117Z,13.75
2022-09-11T06:31:05.601Z,18.30
2022-09-11T06:31:41.850Z,17.98
2022-09-11T06:32:18.817Z,17.23
2022-09-11T06:32:57.014Z,15.52
2022-09-11T06:33:35.296Z,15.73
2022-09-11T06:34:14.096Z,18.13
2022-09-11T06:34:49.885Z,14.10
2022-09-11T06:35:24.078Z,16.08
2022-09-11T06:36:00.549Z,14.68
2022-09-11T06:36:35.012Z,17.02
2022-09-11T06:37:14.933Z,14.05
2022-09-11T06:37:49.352Z,14.63
2022-09-11T06:38:23.764Z,18.88
2022-09-11T06:39:00.443Z,16.42
2022-09-11T06:39:35.505Z,14.07
2022-09-11T06:40:14.007Z,15.88
2022-09-11T06:40:50.007Z,12.98
2022-09-11T06:41:25.345Z,12.27
2022-09-11T06:42:04.478Z,17.05
2022-09-11T06:42:42.966Z,13.98
2022-09-11T06:43:17.776Z,15.00
2022-09-11T06:43:53.467Z,13.73
2022-09-11T06:44:28.232Z,13.93
2022-09-11T06:45:09.098Z,15.27
2022-09-11T06:45:44.119Z,12.38
2022-09-11T06:46:21.311Z,10.98
2022-09-11T06:46:54.736Z,15.57
2022-09-11T06:47:32.610Z,10.90
2022-09-11T06:48:07.178Z,21.48
2022-09-11T06:48:43.388Z,10.95
2022-09-11T06:49:20.283Z,15.70
2022-09-11T06:50:14.871Z,10.13
2022-09-11T06:51:12.063Z,12.05
2022-09-11T06:51:47.616Z,10.05
2022-09-11T06:52:22.117Z,10.75
2022-09-11T06:53:09.686Z,12.48
2022-09-11T06:53:48.143Z,10.13
2022-09-11T06:54:22.371Z,9.48
2022-09-11T06:54:58.020Z,12.32
2022-09-11T06:55:31.938Z,13.35
2022-09-11T06:56:13.818Z,12.98
2022-09-11T06:56:51.101Z,10.70
2022-09-11T06:57:25.354Z,11.02
2022-09-11T06:57:59.305Z,13.35
2022-09-11T06:58:37.193Z,10.48
2022-09-11T06:59:11.573Z,11.10
2022-09-11T06:59:45.090Z,10.80
2022-09-11T07:00:22.449Z,8.98
2022-09-11T07:00:56.713Z,14.15
2022-09-11T07:01:32.079Z,11.93
2022-09-11T07:02:10.326Z,7.93
2022-09-11T07:02:46.852Z,7.25
2022-09-11T07:03:21.154Z,11.05
2022-09-11T07:03:58.621Z,10.60
2022-09-11T07:04:32.768Z,11.45
2022-09-11T07:05:07.564Z,11.57
2022-09-11T07:05:48.671Z,16.90
2022-09-11T07:06:23.789Z,12.40
2022-09-11T07:07:00.591Z,11.55
2022-09-11T07:07:36.307Z,14.32
2022-09-11T07:08:13.139Z,13.75
2022-09-11T07:08:52.771Z,10.27
2022-09-11T07:09:29.508Z,7.80
2022-09-11T07:10:05.817Z,10.15
2022-09-11T07:10:39.933Z,13.77
2022-09-11T07:11:15.455Z,10.43
2022-09-11T07:11:49.817Z,12.48
2022-09-11T07:12:25.669Z,13.70
2022-09-11T07:13:02.229Z,12.65
2022-09-11T07:13:39.383Z,15.45
2022-09-11T07:14:12.829Z,11.65
2022-09-11T07:14:50.544Z,15.10
2022-09-11T07:15:25.450Z,14.38
2022-09-11T07:16:01.925Z,21.80
2022-09-11T07:16:39.621Z,14.30
2022-09-11T07:17:17.002Z,19.77
2022-09-11T07:17:57.667Z,13.60
2022-09-11T07:18:36.133Z,16.42
2022-09-11T07:19:14.189Z,20.48
2022-09-11T07:19:49.190Z,14.63
2022-09-11T07:20:23.971Z,17.17
2022-09-11T07:20:58.947Z,17.75
2022-09-11T07:21:37.868Z,18.58
2022-09-11T07:22:15.264Z,18.00
2022-09-11T07:22:49.556Z,14.15
2022-09-11T07:23:26.857Z,15.10
2022-09-11T07:24:01.919Z,13.85
2022-09-11T07:24:41.351Z,15.43
2022-09-11T07:25:15.024Z,17.55
2022-09-11T07:25:50.612Z,17.45
2022-09-11T07:26:26.858Z,15.20
2022-09-11T07:27:05.348Z,14.88
2022-09-11T07:27:43.045Z,11.50
2022-09-11T07:28:18.353Z,9.57
2022-09-11T07:28:52.901Z,11.00
2022-09-11T07:29:27.762Z,8.98
2022-09-11T07:30:05.045Z,11.18
2022-09-11T07:30:46.705Z,10.93
2022-09-11T07:31:23.305Z,8.45
2022-09-11T07:31:59.319Z,10.70
2022-09-11T07:32:34.258Z,13.10
2022-09-11T07:33:10.586Z,7.75
2022-09-11T07:33:46.709Z,8.10
2022-09-11T07:34:22.666Z,10.25
2022-09-11T07:34:58.260Z,9.68
2022-09-11T07:35:33.087Z,11.88
2022-09-11T07:36:12.567Z,6.40
2022-09-11T07:36:52.594Z,7.38
2022-09-11T07:37:30.208Z,7.97
2022-09-11T07:38:04.566Z,8.45
2022-09-11T07:38:42.531Z,10.65
2022-09-11T07:39:18.201Z,8.02
2022-09-11T07:39:59.690Z,6.63
2022-09-11T07:40:37.060Z,7.47
2022-09-11T07:41:14.086Z,8.90
2022-09-11T07:41:50.396Z,14.55
2022-09-11T07:42:30.371Z,10.88
2022-09-11T07:43:05.440Z,7.30
2022-09-11T07:43:41.424Z,7.78
2022-09-11T07:44:16.966Z,7.70
2022-09-11T07:44:52.308Z,7.63
2022-09-11T07:45:29.122Z,8.80
2022-09-11T07:46:04.570Z,7.65
2022-09-11T07:46:42.122Z,12.25
2022-09-11T07:47:19.318Z,10.30
2022-09-11T07:47:56.393Z,6.50
2022-09-11T07:48:31.370Z,8.20
2022-09-11T07:49:08.534Z,10.70
2022-09-11T07:49:43.573Z,12.45
2022-09-11T07:50:18.675Z,8.48
2022-09-11T07:51:00.048Z,7.55
2022-09-11T07:51:35.351Z,6.75
2022-09-11T07:52:16.736Z,6.35
2022-09-11T07:52:58.063Z,7.60
2022-09-11T07:53:35.102Z,9.88
2022-09-11T07:54:10.307Z,9.05
2022-09-11T07:54:45.315Z,9.23